Time;durP1;ratioP1;P1;durP2;ratioP2;P2;SDS_P1;SDS_P2;PMS_P1;PMS_P2;Temp;Humidity;BMP_temperature;BMP_pressure;BME280_temperature;BME280_humidity;BME280_pressure;Samples;Min_cycle;Max_cycle;Signal;HPM_P1;HPM_P2
2023/12/07 00:00:00;;;;;;;;;;;19.30;53.60;;;;;;5054772;28;19955;-65
2023/12/07 00:02:25;;;;;;;;;;;19.30;53.60;;;;;;5054261;28;20380;-65
2023/12/07 00:04:51;;;;;;;;;;;19.30;53.60;;;;;;5073119;28;19925;-65
2023/12/07 00:07:16;;;;;;;;;;;19.20;53.50;;;;;;5054754;28;20356;-65
2023/12/07 00:09:42;;;;;;;;;;;19.20;53.40;;;;;;5054233;28;19924;-65
2023/12/07 00:12:07;;;;;;;;;;;19.20;53.40;;;;;;5072411;28;19978;-65
2023/12/07 00:14:33;;;;;;;;;;;19.20;53.40;;;;;;5055006;28;20288;-65
2023/12/07 00:16:58;;;;;;;;;;;19.20;53.40;;;;;;5053775;28;20287;-65
2023/12/07 00:19:24;;;;;;;;;;;19.20;53.40;;;;;;5048745;28;20073;-65
2023/12/07 00:21:49;;;;;;;;;;;19.20;53.40;;;;;;5034573;28;20285;-65
2023/12/07 00:24:15;;;;;;;;;;;19.20;53.40;;;;;;5033435;28;19983;-65
2023/12/07 00:26:40;;;;;;;;;;;19.10;53.30;;;;;;5052654;28;20388;-65
2023/12/07 00:29:06;;;;;;;;;;;19.10;53.30;;;;;;5052452;28;19921;-65
2023/12/07 00:31:31;;;;;;;;;;;19.10;53.30;;;;;;5051766;28;20358;-65
2023/12/07 00:33:57;;;;;;;;;;;19.10;53.30;;;;;;5052318;28;20442;-66
2023/12/07 00:36:22;;;;;;;;;;;19.10;53.30;;;;;;5034223;28;19932;-65
2023/12/07 00:38:47;;;;;;;;;;;19.10;53.30;;;;;;5036699;28;19924;-65
2023/12/07 00:41:13;;;;;;;;;;;19.10;53.20;;;;;;5055960;28;19932;-66
2023/12/07 00:43:38;;;;;;;;;;;19.00;53.20;;;;;;5055593;28;20007;-66
2023/12/07 00:46:06;;;;;;;;;;;19.00;53.20;;;;;;5038169;28;19931;-65
2023/12/07 00:48:32;;;;;;;;;;;19.10;53.20;;;;;;5038311;28;20019;-65
2023/12/07 00:50:57;;;;;;;;;;;19.10;53.20;;;;;;5064361;28;20007;-65
2023/12/07 00:53:23;;;;;;;;;;;19.00;53.10;;;;;;5057718;28;19930;-65
2023/12/07 00:55:48;;;;;;;;;;;19.00;53.10;;;;;;5057858;28;19928;-65
2023/12/07 00:58:13;;;;;;;;;;;19.00;53.10;;;;;;5056513;28;19924;-65
2023/12/07 01:00:39;;;;;;;;;;;19.00;53.20;;;;;;5058205;28;20419;-65
2023/12/07 01:03:05;;;;;;;;;;;19.00;53.20;;;;;;5075615;28;19924;-65
2023/12/07 01:05:31;;;;;;;;;;;19.00;53.20;;;;;;5054776;28;19929;-65
2023/12/07 01:07:56;;;;;;;;;;;19.00;53.10;;;;;;5037868;28;19932;-65
2023/12/07 01:10:21;;;;;;;;;;;19.00;53.10;;;;;;5055678;28;19929;-65
2023/12/07 01:12:47;;;;;;;;;;;19.00;53.10;;;;;;5036901;28;19924;-65
2023/12/07 01:15:12;;;;;;;;;;;18.90;53.00;;;;;;5037828;28;19932;-65
2023/12/07 01:17:38;;;;;;;;;;;19.00;53.00;;;;;;5037606;28;20280;-65
2023/12/07 01:20:07;;;;;;;;;;;18.90;53.00;;;;;;5036754;28;19920;-65
2023/12/07 01:22:32;;;;;;;;;;;18.90;53.00;;;;;;5055403;28;19931;-65
2023/12/07 01:24:58;;;;;;;;;;;19.00;53.10;;;;;;5037070;28;19924;-65
2023/12/07 01:27:23;;;;;;;;;;;18.90;53.00;;;;;;5054771;28;20437;-65
2023/12/07 01:29:49;;;;;;;;;;;18.90;53.00;;;;;;5055472;28;19924;-65
2023/12/07 01:32:14;;;;;;;;;;;18.90;53.00;;;;;;5036612;28;20392;-66
2023/12/07 01:34:40;;;;;;;;;;;18.90;52.90;;;;;;5054141;28;19925;-65
2023/12/07 01:37:05;;;;;;;;;;;18.90;52.90;;;;;;5070995;28;19931;-65
2023/12/07 01:39:31;;;;;;;;;;;18.90;52.90;;;;;;5057115;28;19925;-65
2023/12/07 01:41:56;;;;;;;;;;;18.90;52.90;;;;;;5074515;28;19990;-65
2023/12/07 01:44:22;;;;;;;;;;;18.90;52.90;;;;;;5057549;28;19928;-65
2023/12/07 01:46:48;;;;;;;;;;;18.90;52.90;;;;;;5056604;28;20391;-66
2023/12/07 01:49:13;;;;;;;;;;;18.90;52.90;;;;;;5058557;28;19932;-66
2023/12/07 01:51:39;;;;;;;;;;;18.90;52.90;;;;;;5039811;28;19920;-66
2023/12/07 01:54:04;;;;;;;;;;;18.90;52.90;;;;;;5039214;28;19931;-65
2023/12/07 01:56:30;;;;;;;;;;;18.90;52.80;;;;;;5056762;28;19924;-65
2023/12/07 01:58:55;;;;;;;;;;;18.90;52.90;;;;;;5040163;28;19928;-65
2023/12/07 02:01:21;;;;;;;;;;;18.90;52.80;;;;;;5056352;28;20372;-65
2023/12/07 02:03:46;;;;;;;;;;;18.90;52.90;;;;;;5074978;28;20035;-66
2023/12/07 02:06:13;;;;;;;;;;;18.90;52.90;;;;;;5056627;28;20322;-65
2023/12/07 02:08:41;;;;;;;;;;;18.90;52.90;;;;;;5073705;28;19925;-65
2023/12/07 02:11:09;;;;;;;;;;;18.90;52.90;;;;;;5073810;28;20291;-65
2023/12/07 02:13:36;;;;;;;;;;;18.90;52.90;;;;;;5057421;28;19970;-66
2023/12/07 02:16:01;;;;;;;;;;;18.90;52.90;;;;;;5038908;28;19928;-65
2023/12/07 02:18:33;;;;;;;;;;;18.90;52.90;;;;;;5035163;28;19925;-65
2023/12/07 02:20:58;;;;;;;;;;;18.80;52.80;;;;;;5019401;28;20373;-65
2023/12/07 02:23:24;;;;;;;;;;;18.90;52.90;;;;;;5035490;28;20050;-65
2023/12/07 02:25:51;;;;;;;;;;;18.90;52.90;;;;;;5019811;28;19948;-65
2023/12/07 02:28:17;;;;;;;;;;;18.90;52.90;;;;;;5036277;28;19925;-66
2023/12/07 02:30:42;;;;;;;;;;;18.90;52.80;;;;;;5035931;28;19925;-65
2023/12/07 02:33:08;;;;;;;;;;;18.90;52.90;;;;;;5035969;28;19932;-66
2023/12/07 02:35:35;;;;;;;;;;;18.90;52.80;;;;;;5036543;28;20031;-65
2023/12/07 02:38:00;;;;;;;;;;;18.90;52.80;;;;;;5034268;28;19925;-65
2023/12/07 02:40:26;;;;;;;;;;;18.90;52.80;;;;;;5036067;28;20015;-65
2023/12/07 02:42:55;;;;;;;;;;;18.90;52.90;;;;;;5035120;28;19931;-65
2023/12/07 02:45:20;;;;;;;;;;;18.80;52.80;;;;;;5036046;28;19924;-65
2023/12/07 02:47:46;;;;;;;;;;;18.90;52.80;;;;;;5035640;28;19931;-65
2023/12/07 02:50:12;;;;;;;;;;;18.90;52.80;;;;;;5053439;28;20043;-64
2023/12/07 02:52:37;;;;;;;;;;;18.90;52.80;;;;;;5055715;28;19925;-65
2023/12/07 02:55:03;;;;;;;;;;;18.90;53.50;;;;;;5073223;28;19971;-65
2023/12/07 02:57:29;;;;;;;;;;;18.90;52.80;;;;;;5054927;28;19931;-65
2023/12/07 02:59:55;;;;;;;;;;;18.90;52.80;;;;;;5072799;28;19924;-66
2023/12/07 03:02:20;;;;;;;;;;;18.90;53.50;;;;;;5072769;28;19925;-66
2023/12/07 03:04:46;;;;;;;;;;;18.90;52.80;;;;;;5072069;28;19967;-65
2023/12/07 03:07:11;;;;;;;;;;;18.90;52.70;;;;;;5055272;28;19952;-65
2023/12/07 03:09:37;;;;;;;;;;;18.90;52.70;;;;;;5073222;28;20019;-65
2023/12/07 03:12:02;;;;;;;;;;;18.90;52.60;;;;;;5054764;28;19935;-66
2023/12/07 03:14:28;;;;;;;;;;;18.90;52.60;;;;;;5055671;28;20287;-66
2023/12/07 03:16:53;;;;;;;;;;;18.90;52.60;;;;;;5055014;28;19925;-66
2023/12/07 03:19:19;;;;;;;;;;;18.90;52.60;;;;;;5072701;28;19925;-66
2023/12/07 03:21:44;;;;;;;;;;;18.90;52.60;;;;;;5073152;28;20292;-66
2023/12/07 03:24:10;;;;;;;;;;;18.90;52.50;;;;;;5072683;28;19924;-66
2023/12/07 03:26:36;;;;;;;;;;;18.90;52.50;;;;;;5068652;28;19925;-66
2023/12/07 03:29:02;;;;;;;;;;;19.00;52.60;;;;;;5052874;28;19928;-66
2023/12/07 03:31:27;;;;;;;;;;;19.00;52.60;;;;;;5053361;28;20296;-66
2023/12/07 03:33:53;;;;;;;;;;;19.00;53.20;;;;;;5034168;28;20302;-66
2023/12/07 03:36:18;;;;;;;;;;;19.00;52.60;;;;;;5035300;28;19924;-66
2023/12/07 03:38:44;;;;;;;;;;;19.00;52.50;;;;;;5035478;28;19932;-65
2023/12/07 03:41:09;;;;;;;;;;;19.00;52.50;;;;;;5052319;28;20015;-66
2023/12/07 03:43:35;;;;;;;;;;;19.00;52.50;;;;;;5035453;28;19925;-66
2023/12/07 03:46:03;;;;;;;;;;;19.00;52.50;;;;;;5035073;28;19928;-65
2023/12/07 03:48:29;;;;;;;;;;;19.00;52.50;;;;;;5034376;28;19925;-65
2023/12/07 03:50:54;;;;;;;;;;;19.00;52.50;;;;;;5052590;28;19978;-65
2023/12/07 03:53:20;;;;;;;;;;;19.00;52.50;;;;;;5034101;28;19925;-66
2023/12/07 03:55:45;;;;;;;;;;;19.00;52.50;;;;;;5035386;28;19924;-66
2023/12/07 03:58:11;;;;;;;;;;;19.10;52.50;;;;;;5034844;28;19935;-65
2023/12/07 04:00:36;;;;;;;;;;;19.10;52.50;;;;;;5051988;28;19929;-66
2023/12/07 04:03:01;;;;;;;;;;;19.00;52.50;;;;;;5052872;28;19968;-66
2023/12/07 04:05:27;;;;;;;;;;;19.10;52.40;;;;;;5052661;28;19928;-65
2023/12/07 04:07:52;;;;;;;;;;;19.10;52.50;;;;;;5052115;28;19925;-66
2023/12/07 04:10:18;;;;;;;;;;;19.10;52.40;;;;;;5035172;28;19931;-66
2023/12/07 04:12:43;;;;;;;;;;;19.10;52.40;;;;;;5035110;28;19925;-66
2023/12/07 04:15:09;;;;;;;;;;;19.10;52.40;;;;;;5038215;28;20358;-66
2023/12/07 04:17:35;;;;;;;;;;;19.10;52.70;;;;;;5039058;28;20388;-66
2023/12/07 04:20:01;;;;;;;;;;;19.10;52.40;;;;;;5038611;28;19978;-67
2023/12/07 04:22:26;;;;;;;;;;;19.20;52.40;;;;;;5038195;28;20008;-66
2023/12/07 04:24:51;;;;;;;;;;;19.20;52.40;;;;;;5056117;28;19925;-67
2023/12/07 04:27:17;;;;;;;;;;;19.20;52.40;;;;;;5038543;28;19960;-67
2023/12/07 04:29:42;;;;;;;;;;;19.20;52.40;;;;;;5037765;28;19928;-67
2023/12/07 04:32:08;;;;;;;;;;;19.20;52.30;;;;;;5056220;28;19925;-67
2023/12/07 04:34:33;;;;;;;;;;;19.20;52.40;;;;;;5056644;28;19924;-67
2023/12/07 04:36:59;;;;;;;;;;;19.20;52.30;;;;;;5037345;28;19927;-67
2023/12/07 04:39:24;;;;;;;;;;;19.20;52.30;;;;;;5038779;28;19924;-67
2023/12/07 04:41:51;;;;;;;;;;;19.20;52.30;;;;;;5044839;28;19931;-67
2023/12/07 04:44:16;;;;;;;;;;;19.20;52.30;;;;;;5056943;28;20295;-66
2023/12/07 04:46:42;;;;;;;;;;;19.30;52.30;;;;;;5058247;28;20445;-66
2023/12/07 04:49:07;;;;;;;;;;;19.30;52.30;;;;;;5041249;28;19927;-66
2023/12/07 04:51:33;;;;;;;;;;;19.30;52.30;;;;;;5057413;28;19990;-66
2023/12/07 04:53:58;;;;;;;;;;;19.30;52.30;;;;;;5057463;28;19925;-66
2023/12/07 04:56:24;;;;;;;;;;;19.30;52.20;;;;;;5058350;28;19924;-66
2023/12/07 04:58:49;;;;;;;;;;;19.30;52.30;;;;;;5057233;28;19924;-66
2023/12/07 05:01:15;;;;;;;;;;;19.30;52.20;;;;;;5057778;28;19931;-66
2023/12/07 05:03:40;;;;;;;;;;;19.40;52.30;;;;;;5075067;28;20402;-66
2023/12/07 05:06:07;;;;;;;;;;;19.30;52.20;;;;;;5056643;28;19936;-66
2023/12/07 05:08:33;;;;;;;;;;;19.30;52.20;;;;;;5058302;28;19932;-66
2023/12/07 05:10:58;;;;;;;;;;;19.40;52.20;;;;;;5056675;28;19924;-66
2023/12/07 05:13:24;;;;;;;;;;;19.40;52.20;;;;;;5057708;28;19925;-66
2023/12/07 05:15:49;;;;;;;;;;;19.40;52.20;;;;;;5057696;28;20015;-66
2023/12/07 05:18:14;;;;;;;;;;;19.40;52.20;;;;;;5056814;28;19925;-66
2023/12/07 05:20:40;;;;;;;;;;;19.40;52.10;;;;;;5075530;28;20007;-66
2023/12/07 05:23:06;;;;;;;;;;;19.40;52.10;;;;;;5057455;28;19924;-67
2023/12/07 05:25:32;;;;;;;;;;;19.40;52.10;;;;;;5055875;28;19935;-66
2023/12/07 05:27:59;;;;;;;;;;;19.40;52.10;;;;;;5056801;28;20342;-67
2023/12/07 05:30:25;;;;;;;;;;;19.50;52.20;;;;;;5075521;28;19971;-67
2023/12/07 05:32:50;;;;;;;;;;;19.50;52.20;;;;;;5056648;28;19924;-66
2023/12/07 05:35:16;;;;;;;;;;;19.50;52.10;;;;;;5056906;28;19925;-66
2023/12/07 05:37:41;;;;;;;;;;;19.50;52.10;;;;;;5057567;28;20019;-66
2023/12/07 05:40:08;;;;;;;;;;;19.50;52.10;;;;;;5074159;28;19924;-66
2023/12/07 05:42:33;;;;;;;;;;;19.50;52.10;;;;;;5057193;28;19924;-66
2023/12/07 05:44:59;;;;;;;;;;;19.50;52.10;;;;;;5074768;28;20024;-66
2023/12/07 05:47:25;;;;;;;;;;;19.50;52.10;;;;;;5056423;28;19925;-66
2023/12/07 05:49:51;;;;;;;;;;;19.50;52.10;;;;;;5074998;28;19924;-66
2023/12/07 05:52:16;;;;;;;;;;;19.50;52.10;;;;;;5056753;28;19932;-66
2023/12/07 05:54:43;;;;;;;;;;;19.50;52.10;;;;;;5074084;28;19924;-66
2023/12/07 05:57:08;;;;;;;;;;;19.50;52.10;;;;;;5056753;28;20455;-66
2023/12/07 05:59:38;;;;;;;;;;;19.50;52.00;;;;;;5056943;28;19999;-66
2023/12/07 06:02:04;;;;;;;;;;;19.50;52.00;;;;;;5073783;28;19924;-66
2023/12/07 06:04:30;;;;;;;;;;;19.50;52.00;;;;;;5056948;28;19925;-66
2023/12/07 06:06:55;;;;;;;;;;;19.50;52.00;;;;;;5055820;28;19928;-66
2023/12/07 06:09:21;;;;;;;;;;;19.60;52.00;;;;;;5074649;28;19935;-66
2023/12/07 06:11:46;;;;;;;;;;;19.60;52.00;;;;;;5056588;28;19924;-66
2023/12/07 06:14:12;;;;;;;;;;;19.60;52.00;;;;;;5055571;28;19925;-66
2023/12/07 06:16:37;;;;;;;;;;;19.60;52.00;;;;;;5056628;28;19931;-66
2023/12/07 06:19:03;;;;;;;;;;;19.60;52.00;;;;;;5056119;28;19991;-66
2023/12/07 06:21:30;;;;;;;;;;;19.60;51.90;;;;;;5055697;28;19930;-66
2023/12/07 06:23:55;;;;;;;;;;;19.60;52.00;;;;;;5073874;28;19928;-66
2023/12/07 06:26:21;;;;;;;;;;;19.60;52.00;;;;;;5056684;28;20148;-66
2023/12/07 06:28:47;;;;;;;;;;;19.70;52.00;;;;;;5055761;28;20280;-67
2023/12/07 06:31:14;;;;;;;;;;;19.70;52.60;;;;;;5074096;28;19925;-67
2023/12/07 06:33:40;;;;;;;;;;;19.70;51.90;;;;;;5056140;28;19924;-67
2023/12/07 06:36:06;;;;;;;;;;;19.70;51.90;;;;;;5055112;28;19932;-67
2023/12/07 06:38:31;;;;;;;;;;;19.70;51.90;;;;;;5074326;28;20413;-66
2023/12/07 06:40:57;;;;;;;;;;;19.70;51.90;;;;;;5068920;28;19928;-66
2023/12/07 06:43:22;;;;;;;;;;;19.70;51.90;;;;;;5053500;28;20381;-66
2023/12/07 06:45:48;;;;;;;;;;;19.70;51.80;;;;;;5041316;28;20392;-66
2023/12/07 06:48:13;;;;;;;;;;;19.70;51.80;;;;;;5055635;28;19977;-66
2023/12/07 06:50:39;;;;;;;;;;;19.70;51.90;;;;;;5055286;28;20022;-66
2023/12/07 06:53:04;;;;;;;;;;;19.70;51.80;;;;;;5073660;28;19925;-66
2023/12/07 06:55:30;;;;;;;;;;;19.70;51.80;;;;;;5055912;28;19925;-65
2023/12/07 06:57:55;;;;;;;;;;;19.80;51.80;;;;;;5054611;28;20356;-66
2023/12/07 07:00:21;;;;;;;;;;;19.70;51.80;;;;;;5055647;28;19974;-66
2023/12/07 07:02:46;;;;;;;;;;;19.80;51.80;;;;;;5055595;28;19928;-66
2023/12/07 07:05:12;;;;;;;;;;;19.80;51.80;;;;;;5072381;28;19928;-66
2023/12/07 07:07:38;;;;;;;;;;;19.80;51.80;;;;;;5073429;28;20376;-64
2023/12/07 07:10:04;;;;;;;;;;;19.80;51.80;;;;;;5055175;28;19924;-62
2023/12/07 07:12:29;;;;;;;;;;;19.80;51.80;;;;;;5072557;28;19928;-63
2023/12/07 07:14:55;;;;;;;;;;;19.80;51.70;;;;;;5073059;28;19924;-62
2023/12/07 07:17:20;;;;;;;;;;;19.80;51.80;;;;;;5053987;28;19920;-63
2023/12/07 07:19:45;;;;;;;;;;;19.80;51.80;;;;;;5073587;28;19970;-63
2023/12/07 07:22:11;;;;;;;;;;;19.80;51.70;;;;;;5073290;28;19985;-63
2023/12/07 07:24:37;;;;;;;;;;;19.80;51.80;;;;;;5072558;28;19925;-62
2023/12/07 07:27:02;;;;;;;;;;;19.80;51.80;;;;;;5055008;28;19925;-62
2023/12/07 07:29:28;;;;;;;;;;;19.80;51.80;;;;;;5073304;28;20021;-63
2023/12/07 07:31:53;;;;;;;;;;;19.80;51.80;;;;;;5054322;28;20291;-63
2023/12/07 07:34:19;;;;;;;;;;;19.90;51.80;;;;;;5055618;28;19924;-63
2023/12/07 07:36:44;;;;;;;;;;;19.90;51.80;;;;;;5060611;28;20318;-63
2023/12/07 07:39:11;;;;;;;;;;;19.90;51.80;;;;;;5034646;28;19932;-63
2023/12/07 07:41:36;;;;;;;;;;;19.90;51.90;;;;;;5035425;28;19925;-62
2023/12/07 07:44:02;;;;;;;;;;;19.90;51.90;;;;;;5034995;28;19983;-63
2023/12/07 07:46:28;;;;;;;;;;;19.90;51.90;;;;;;5034514;28;20380;-61
2023/12/07 07:48:53;;;;;;;;;;;19.90;51.90;;;;;;5053837;28;19926;-61
2023/12/07 07:51:19;;;;;;;;;;;19.90;52.10;;;;;;5055113;28;20018;-62
2023/12/07 07:53:44;;;;;;;;;;;19.90;52.20;;;;;;5054264;28;19932;-61
2023/12/07 07:56:10;;;;;;;;;;;19.90;52.30;;;;;;5072582;28;20397;-61
2023/12/07 07:58:35;;;;;;;;;;;19.90;52.40;;;;;;5054962;28;19932;-62
2023/12/07 08:01:01;;;;;;;;;;;19.90;52.40;;;;;;5064408;28;19981;-62
2023/12/07 08:03:26;;;;;;;;;;;19.90;52.50;;;;;;5052826;28;20396;-63
2023/12/07 08:05:52;;;;;;;;;;;19.90;52.60;;;;;;5034469;28;19958;-63
2023/12/07 08:08:17;;;;;;;;;;;19.90;52.60;;;;;;5052129;28;19931;-63
2023/12/07 08:10:42;;;;;;;;;;;19.90;52.60;;;;;;5034831;28;19925;-63
2023/12/07 08:13:08;;;;;;;;;;;20.00;52.80;;;;;;5034691;28;19925;-63
2023/12/07 08:15:34;;;;;;;;;;;20.00;52.70;;;;;;5034138;28;19970;-65
2023/12/07 08:17:59;;;;;;;;;;;20.00;52.60;;;;;;5033876;28;19932;-64
2023/12/07 08:20:25;;;;;;;;;;;20.00;52.80;;;;;;5033729;28;19932;-64
2023/12/07 08:22:51;;;;;;;;;;;20.00;52.90;;;;;;5033731;28;19994;-64
2023/12/07 08:25:17;;;;;;;;;;;20.00;52.90;;;;;;5033878;28;19925;-61
2023/12/07 08:27:44;;;;;;;;;;;20.00;52.90;;;;;;5051870;28;19936;-62
2023/12/07 08:30:10;;;;;;;;;;;20.00;52.90;;;;;;5052013;28;19932;-62
2023/12/07 08:32:36;;;;;;;;;;;20.00;52.90;;;;;;5034300;28;19925;-62
2023/12/07 08:35:01;;;;;;;;;;;20.00;52.90;;;;;;5039409;28;19928;-62
2023/12/07 08:37:27;;;;;;;;;;;20.00;52.90;;;;;;5043792;28;19925;-63
2023/12/07 08:39:52;;;;;;;;;;;20.00;52.90;;;;;;5042311;28;19925;-63
2023/12/07 08:42:18;;;;;;;;;;;20.00;53.00;;;;;;5061254;28;19933;-63
2023/12/07 08:44:44;;;;;;;;;;;20.00;53.10;;;;;;5054497;28;20022;-62
2023/12/07 08:47:10;;;;;;;;;;;20.00;53.20;;;;;;5054417;28;19963;-62
2023/12/07 08:49:35;;;;;;;;;;;20.00;53.20;;;;;;5053577;28;19968;-62
2023/12/07 08:52:01;;;;;;;;;;;20.10;53.30;;;;;;5054219;28;19970;-62
2023/12/07 08:54:27;;;;;;;;;;;20.10;53.40;;;;;;5072032;28;19924;-62
2023/12/07 08:56:52;;;;;;;;;;;20.10;53.30;;;;;;5053387;28;19925;-61
2023/12/07 08:59:18;;;;;;;;;;;20.10;53.40;;;;;;5072433;28;19925;-61
2023/12/07 09:01:43;;;;;;;;;;;20.10;53.40;;;;;;5040478;28;19931;-62
2023/12/07 09:04:09;;;;;;;;;;;20.10;53.50;;;;;;5056942;28;20017;-62
2023/12/07 09:06:35;;;;;;;;;;;20.10;53.40;;;;;;5041723;28;20361;-62
2023/12/07 09:09:04;;;;;;;;;;;20.10;53.50;;;;;;5056864;28;19936;-61
2023/12/07 09:11:29;;;;;;;;;;;20.10;53.50;;;;;;5074937;28;19925;-61
2023/12/07 09:13:55;;;;;;;;;;;20.10;53.50;;;;;;5071584;28;19924;-61
2023/12/07 09:16:21;;;;;;;;;;;20.10;53.30;;;;;;5045488;28;19975;-61
2023/12/07 09:18:46;;;;;;;;;;;20.10;53.40;;;;;;5045672;28;19988;-62
2023/12/07 09:21:12;;;;;;;;;;;20.10;53.50;;;;;;5044315;28;19932;-62
2023/12/07 09:23:37;;;;;;;;;;;20.10;53.50;;;;;;5043650;28;20009;-62
2023/12/07 09:26:03;;;;;;;;;;;20.10;53.50;;;;;;5041349;28;19933;-61
2023/12/07 09:28:29;;;;;;;;;;;20.10;53.50;;;;;;5041811;28;20375;-63
2023/12/07 09:30:54;;;;;;;;;;;20.00;53.50;;;;;;5040918;28;19924;-62
2023/12/07 09:33:20;;;;;;;;;;;20.00;53.40;;;;;;5035971;28;19975;-62
2023/12/07 09:35:45;;;;;;;;;;;20.00;53.40;;;;;;5036000;28;19925;-62
2023/12/07 09:38:11;;;;;;;;;;;20.00;53.50;;;;;;5034685;28;20048;-63
2023/12/07 09:40:36;;;;;;;;;;;20.00;53.50;;;;;;5036345;28;20027;-62
2023/12/07 09:43:02;;;;;;;;;;;20.00;53.50;;;;;;5054868;28;20403;-62
2023/12/07 09:45:27;;;;;;;;;;;20.00;53.40;;;;;;5036616;28;19975;-62
2023/12/07 09:47:53;;;;;;;;;;;20.00;53.50;;;;;;5037805;28;20359;-61
2023/12/07 09:50:23;;;;;;;;;;;19.90;53.40;;;;;;5075046;28;19921;-61
2023/12/07 09:52:50;;;;;;;;;;;19.90;53.40;;;;;;5073756;28;20315;-62
2023/12/07 09:55:16;;;;;;;;;;;19.90;53.40;;;;;;5047365;28;20010;-62
2023/12/07 09:57:41;;;;;;;;;;;19.90;53.40;;;;;;5065540;28;19964;-61
2023/12/07 10:00:09;;;;;;;;;;;19.90;53.50;;;;;;5062590;28;19991;-63
2023/12/07 10:02:38;;;;;;;;;;;19.90;53.40;;;;;;5046328;28;19943;-62
2023/12/07 10:05:07;;;;;;;;;;;19.90;53.40;;;;;;5064598;28;19950;-61
2023/12/07 10:07:35;;;;;;;;;;;19.80;53.40;;;;;;5044827;28;19925;-62
2023/12/07 10:10:01;;;;;;;;;;;19.80;53.40;;;;;;5044482;28;20365;-62
2023/12/07 10:12:26;;;;;;;;;;;19.90;53.40;;;;;;5038217;28;19947;-62
2023/12/07 10:14:52;;;;;;;;;;;19.80;53.40;;;;;;5035999;28;19928;-63
2023/12/07 10:17:17;;;;;;;;;;;19.80;53.40;;;;;;5036224;28;20315;-62
2023/12/07 10:19:43;;;;;;;;;;;19.80;53.40;;;;;;5036506;28;19925;-62
2023/12/07 10:22:17;;;;;;;;;;;19.80;53.40;;;;;;5035614;28;19960;-62
2023/12/07 10:24:43;;;;;;;;;;;19.80;53.20;;;;;;5036319;28;19929;-62
2023/12/07 10:27:08;;;;;;;;;;;19.80;53.20;;;;;;5035207;28;20403;-62
2023/12/07 10:29:37;;;;;;;;;;;19.70;53.00;;;;;;5036365;28;19947;-62
2023/12/07 10:32:04;;;;;;;;;;;19.70;52.70;;;;;;5035759;28;20072;-62
2023/12/07 10:34:30;;;;;;;;;;;19.70;52.70;;;;;;5035449;28;19932;-63
2023/12/07 10:36:57;;;;;;;;;;;19.70;52.60;;;;;;5053602;28;19925;-63
2023/12/07 10:39:24;;;;;;;;;;;19.70;52.60;;;;;;5036464;28;19925;-62
2023/12/07 10:41:50;;;;;;;;;;;19.70;52.80;;;;;;5035156;28;20455;-62
2023/12/07 10:44:16;;;;;;;;;;;19.70;52.90;;;;;;5031821;28;19933;-63
2023/12/07 10:46:42;;;;;;;;;;;19.70;52.90;;;;;;5036033;28;19925;-63
2023/12/07 10:49:07;;;;;;;;;;;19.70;53.30;;;;;;5035330;28;19925;-63
2023/12/07 10:51:49;;;;;;;;;;;19.70;53.30;;;;;;5035973;28;19925;-63
2023/12/07 10:54:16;;;;;;;;;;;19.60;53.30;;;;;;5035177;28;20333;-63
2023/12/07 10:56:45;;;;;;;;;;;19.70;53.20;;;;;;5064375;28;19987;-63
2023/12/07 10:59:11;;;;;;;;;;;19.70;53.30;;;;;;5055343;28;19924;-64
2023/12/07 11:01:40;;;;;;;;;;;19.60;53.30;;;;;;5055581;28;20027;-64
2023/12/07 11:04:06;;;;;;;;;;;19.60;53.30;;;;;;5072590;28;19928;-63
2023/12/07 11:06:31;;;;;;;;;;;19.60;53.30;;;;;;5073425;28;19931;-64
2023/12/07 11:08:58;;;;;;;;;;;19.70;53.30;;;;;;5055334;28;20371;-63
2023/12/07 11:11:33;;;;;;;;;;;19.60;53.30;;;;;;5054663;28;19924;-63
2023/12/07 11:14:11;;;;;;;;;;;19.70;53.40;;;;;;5073396;28;19924;-63
2023/12/07 11:16:37;;;;;;;;;;;19.60;53.30;;;;;;5054208;28;19924;-63
2023/12/07 11:19:04;;;;;;;;;;;19.60;53.30;;;;;;5055050;28;19924;-63
2023/12/07 11:21:30;;;;;;;;;;;19.70;53.30;;;;;;5068697;28;19978;-64
2023/12/07 11:23:55;;;;;;;;;;;19.60;53.30;;;;;;5037080;28;19928;-63
2023/12/07 11:26:25;;;;;;;;;;;19.60;53.20;;;;;;5066510;28;20372;-63
2023/12/07 11:28:50;;;;;;;;;;;19.60;53.30;;;;;;5035431;28;19936;-63
2023/12/07 11:31:16;;;;;;;;;;;19.60;53.20;;;;;;5034262;28;19925;-63
2023/12/07 11:33:41;;;;;;;;;;;19.60;53.30;;;;;;5044698;28;19925;-63
2023/12/07 11:36:07;;;;;;;;;;;19.60;53.10;;;;;;5052330;28;19931;-62
2023/12/07 11:38:33;;;;;;;;;;;19.60;53.30;;;;;;5046274;28;20403;-61
2023/12/07 11:40:58;;;;;;;;;;;19.60;53.30;;;;;;5034733;28;19925;-63
2023/12/07 11:43:33;;;;;;;;;;;19.60;53.20;;;;;;5053936;28;19931;-63
2023/12/07 11:45:59;;;;;;;;;;;19.50;53.20;;;;;;5044685;28;19925;-62
2023/12/07 11:48:24;;;;;;;;;;;19.60;53.20;;;;;;5053219;28;19948;-61
2023/12/07 11:50:55;;;;;;;;;;;19.50;53.10;;;;;;5061890;28;19921;-62
2023/12/07 11:53:21;;;;;;;;;;;19.60;53.20;;;;;;5054962;28;19925;-62
2023/12/07 11:55:46;;;;;;;;;;;19.50;53.00;;;;;;5046160;28;20050;-62
2023/12/07 11:58:12;;;;;;;;;;;19.50;53.00;;;;;;5072771;28;20351;-62
2023/12/07 12:00:38;;;;;;;;;;;19.60;53.00;;;;;;5053686;28;19931;-62
2023/12/07 12:03:03;;;;;;;;;;;19.50;53.00;;;;;;5036749;28;19929;-61
2023/12/07 12:05:29;;;;;;;;;;;19.50;53.10;;;;;;5060385;28;19932;-62
2023/12/07 12:07:55;;;;;;;;;;;19.50;53.20;;;;;;5054982;28;20376;-62
2023/12/07 12:10:22;;;;;;;;;;;19.60;53.50;;;;;;5058581;28;20318;-62
2023/12/07 12:12:48;;;;;;;;;;;19.50;53.30;;;;;;5040836;28;20368;-62
2023/12/07 12:15:13;;;;;;;;;;;19.50;53.30;;;;;;5034298;28;20016;-62
2023/12/07 12:17:39;;;;;;;;;;;19.50;53.30;;;;;;5035169;28;19936;-62
2023/12/07 12:20:04;;;;;;;;;;;19.50;53.40;;;;;;5037306;28;19974;-61
2023/12/07 12:22:31;;;;;;;;;;;19.60;53.40;;;;;;5053654;28;19928;-61
2023/12/07 12:24:57;;;;;;;;;;;19.50;53.40;;;;;;5054454;28;19925;-62
2023/12/07 12:27:22;;;;;;;;;;;19.50;53.40;;;;;;5050612;28;19954;-62
2023/12/07 12:29:48;;;;;;;;;;;19.60;53.50;;;;;;5037876;28;20391;-61
2023/12/07 12:32:13;;;;;;;;;;;19.60;53.50;;;;;;5052578;28;19924;-61
2023/12/07 12:34:39;;;;;;;;;;;19.60;53.40;;;;;;5073161;28;19930;-61
2023/12/07 12:37:05;;;;;;;;;;;19.60;53.30;;;;;;5076053;28;19924;-61
2023/12/07 12:39:31;;;;;;;;;;;19.50;53.20;;;;;;5076178;28;19932;-61
2023/12/07 12:41:57;;;;;;;;;;;19.50;53.80;;;;;;5074249;28;19925;-62
2023/12/07 12:44:23;;;;;;;;;;;19.60;53.00;;;;;;5057800;28;20376;-62
2023/12/07 12:46:48;;;;;;;;;;;19.50;52.90;;;;;;5038320;28;19970;-62
2023/12/07 12:49:14;;;;;;;;;;;19.60;53.00;;;;;;5021341;28;19947;-62
2023/12/07 12:51:39;;;;;;;;;;;19.50;52.80;;;;;;5038200;28;20011;-62
2023/12/07 12:54:05;;;;;;;;;;;19.50;52.90;;;;;;5055699;28;19947;-62
2023/12/07 12:56:30;;;;;;;;;;;19.60;52.90;;;;;;5055476;28;20008;-62
2023/12/07 12:58:56;;;;;;;;;;;19.60;52.90;;;;;;5055948;28;20264;-62
2023/12/07 13:01:21;;;;;;;;;;;19.60;52.80;;;;;;5038210;28;20361;-62
2023/12/07 13:03:47;;;;;;;;;;;19.60;52.80;;;;;;5055294;28;20287;-62
2023/12/07 13:06:14;;;;;;;;;;;19.60;52.80;;;;;;5055812;28;19925;-62
2023/12/07 13:08:46;;;;;;;;;;;19.60;52.70;;;;;;5037952;28;19951;-62
2023/12/07 13:11:18;;;;;;;;;;;19.60;52.80;;;;;;5037354;28;19929;-62
2023/12/07 13:13:44;;;;;;;;;;;19.60;52.70;;;;;;5037793;28;20011;-62
2023/12/07 13:16:11;;;;;;;;;;;19.60;52.70;;;;;;5054611;28;20684;-62
2023/12/07 13:18:37;;;;;;;;;;;19.60;52.70;;;;;;5055707;28;19925;-62
2023/12/07 13:21:03;;;;;;;;;;;19.60;52.70;;;;;;5055082;28;19935;-61
2023/12/07 13:23:28;;;;;;;;;;;19.60;52.70;;;;;;5054746;28;19929;-60
2023/12/07 13:25:54;;;;;;;;;;;19.60;52.60;;;;;;5055205;28;19937;-60
2023/12/07 13:28:20;;;;;;;;;;;19.60;52.60;;;;;;5037410;28;19932;-61
2023/12/07 13:30:45;;;;;;;;;;;19.60;52.60;;;;;;5036774;28;19931;-60
2023/12/07 13:33:11;;;;;;;;;;;19.70;52.60;;;;;;5055104;28;19924;-61
2023/12/07 13:35:36;;;;;;;;;;;19.60;52.60;;;;;;5037678;28;19994;-61
2023/12/07 13:38:02;;;;;;;;;;;19.70;52.60;;;;;;5036796;28;19921;-61
2023/12/07 13:40:27;;;;;;;;;;;19.70;52.60;;;;;;5037317;28;19925;-61
2023/12/07 13:42:53;;;;;;;;;;;19.70;52.60;;;;;;5055030;28;19929;-61
2023/12/07 13:45:19;;;;;;;;;;;19.70;53.30;;;;;;5036536;28;19921;-61
2023/12/07 13:47:45;;;;;;;;;;;19.70;52.50;;;;;;5037005;28;19925;-62
2023/12/07 13:50:11;;;;;;;;;;;19.70;52.50;;;;;;5036733;28;19921;-62
2023/12/07 13:52:38;;;;;;;;;;;19.70;52.50;;;;;;5036550;28;19932;-62
2023/12/07 13:55:04;;;;;;;;;;;19.70;52.50;;;;;;5036845;28;19929;-62
2023/12/07 13:57:30;;;;;;;;;;;19.70;52.50;;;;;;5055347;28;20031;-62
2023/12/07 13:59:55;;;;;;;;;;;19.70;52.40;;;;;;5036243;28;19960;-62
2023/12/07 14:02:21;;;;;;;;;;;19.70;52.40;;;;;;5036863;28;19921;-62
2023/12/07 14:04:49;;;;;;;;;;;19.70;52.40;;;;;;5055122;28;19931;-62
2023/12/07 14:07:15;;;;;;;;;;;19.80;52.40;;;;;;5035911;28;19951;-62